Time;durP1;ratioP1;P1;durP2;ratioP2;P2;SDS_P1;SDS_P2;PMS_P1;PMS_P2;Temp;Humidity;BMP_temperature;BMP_pressure;BME280_temperature;BME280_humidity;BME280_pressure;Samples;Min_cycle;Max_cycle;Signal;HPM_P1;HPM_P2
2023/05/14 00:02:15;;;;;;;7.82;4.95;;;;;;;14.03;55.52;102058.03;7392631;19;20090;-47
2023/05/14 00:04:42;;;;;;;10.75;4.85;;;;;;;14.00;55.56;102060.06;7393070;19;20039;-49
2023/05/14 00:07:09;;;;;;;12.40;4.88;;;;;;;14.33;54.58;102068.44;7393857;19;20499;-48
2023/05/14 00:09:36;;;;;;;8.20;5.13;;;;;;;14.60;53.33;102062.19;7391142;19;20589;-51
2023/05/14 00:12:03;;;;;;;11.00;5.63;;;;;;;14.67;52.68;102063.47;7391670;19;20018;-48
2023/05/14 00:14:30;;;;;;;8.30;5.25;;;;;;;14.79;52.48;102061.75;7390803;19;20357;-52
2023/05/14 00:16:58;;;;;;;8.95;5.88;;;;;;;14.70;52.60;102065.91;7391078;19;20018;-48
2023/05/14 00:19:25;;;;;;;8.45;5.22;;;;;;;14.58;53.32;102059.63;7392498;19;20011;-51
2023/05/14 00:21:52;;;;;;;10.45;5.53;;;;;;;14.60;53.10;102059.53;7391215;19;20489;-50
2023/05/14 00:24:19;;;;;;;13.23;5.97;;;;;;;14.63;53.22;102059.31;7390959;19;20364;-50
2023/05/14 00:26:46;;;;;;;11.77;5.63;;;;;;;14.50;54.12;102055.78;7392645;19;20031;-50
2023/05/14 00:29:13;;;;;;;10.02;5.28;;;;;;;14.17;55.54;102045.63;7390493;19;20018;-54
2023/05/14 00:31:40;;;;;;;10.93;5.18;;;;;;;14.34;54.22;102046.13;7391138;19;20366;-51
2023/05/14 00:34:07;;;;;;;9.73;5.60;;;;;;;14.43;53.75;102054.50;7392430;19;20019;-55
2023/05/14 00:36:34;;;;;;;11.43;5.45;;;;;;;14.50;53.04;102053.13;7392194;19;20018;-55
2023/05/14 00:39:02;;;;;;;11.50;5.50;;;;;;;14.44;53.68;102042.84;7390211;19;20022;-54
2023/05/14 00:41:29;;;;;;;10.02;5.18;;;;;;;14.45;53.28;102041.88;7390765;19;20025;-53
2023/05/14 00:43:56;;;;;;;8.38;4.88;;;;;;;14.45;52.93;102045.41;7391920;19;20038;-54
2023/05/14 00:46:23;;;;;;;9.38;5.20;;;;;;;14.45;53.10;102033.91;7391222;19;20096;-53
2023/05/14 00:48:50;;;;;;;8.48;5.28;;;;;;;14.39;53.20;102036.03;7389087;19;20029;-53
2023/05/14 00:51:18;;;;;;;10.20;5.00;;;;;;;14.39;53.45;102037.84;7390818;19;20028;-53
2023/05/14 00:53:45;;;;;;;8.70;4.85;;;;;;;14.42;53.79;102039.44;7391618;19;20482;-53
2023/05/14 00:56:13;;;;;;;7.78;5.13;;;;;;;14.24;54.48;102037.09;7390752;19;20024;-54
2023/05/14 00:58:40;;;;;;;9.32;5.05;;;;;;;14.01;55.34;102036.00;7390613;19;20101;-54
2023/05/14 01:01:08;;;;;;;8.43;4.93;;;;;;;13.78;56.28;102034.88;7390596;19;20032;-51
2023/05/14 01:03:35;;;;;;;12.07;5.60;;;;;;;14.02;55.47;102032.38;7390960;19;20031;-54
2023/05/14 01:06:20;;;;;;;9.68;6.00;;;;;;;14.24;55.35;102039.75;7390804;19;20022;-51
2023/05/14 01:09:23;;;;;;;10.50;5.68;;;;;;;14.36;54.61;102040.72;7390032;19;20021;-51
2023/05/14 01:12:02;;;;;;;9.18;6.00;;;;;;;14.27;54.45;102046.66;7388829;19;20157;-49
2023/05/14 01:14:39;;;;;;;13.98;6.45;;;;;;;13.84;55.99;102037.13;7390465;19;20014;-51
2023/05/14 01:17:10;;;;;;;12.85;6.80;;;;;;;13.73;56.96;102029.00;7391241;19;20355;-50
2023/05/14 01:19:43;;;;;;;10.30;5.97;;;;;;;13.67;57.19;102037.41;7388765;19;20086;-50
2023/05/14 01:22:10;;;;;;;8.10;5.65;;;;;;;13.89;56.35;102037.69;7389713;19;20074;-50
2023/05/14 01:24:38;;;;;;;9.38;5.60;;;;;;;14.01;55.55;102029.81;7390044;19;20017;-49
2023/05/14 01:27:20;;;;;;;12.48;5.95;;;;;;;14.08;55.75;102037.28;7390176;19;20051;-53
2023/05/14 01:30:09;;;;;;;9.40;6.20;;;;;;;14.01;56.08;102030.66;7389034;19;20024;-49
2023/05/14 01:32:38;;;;;;;10.52;6.60;;;;;;;13.52;58.22;102028.63;7390357;19;20035;-49
2023/05/14 01:35:06;;;;;;;10.52;6.15;;;;;;;13.32;58.37;102029.91;7390145;19;20035;-51
2023/05/14 01:37:35;;;;;;;9.25;6.35;;;;;;;13.48;57.85;102021.78;7388934;19;20018;-52
2023/05/14 01:40:03;;;;;;;11.30;6.00;;;;;;;13.72;57.31;102018.44;7389533;19;20018;-48
2023/05/14 01:42:31;;;;;;;8.50;5.68;;;;;;;13.94;56.10;102020.53;7388099;19;20025;-49
2023/05/14 01:44:58;;;;;;;7.72;5.60;;;;;;;13.87;55.93;102020.09;7389382;19;20023;-48
2023/05/14 01:47:25;;;;;;;8.85;6.40;;;;;;;13.87;56.42;102015.59;7389775;19;20011;-48
2023/05/14 01:49:52;;;;;;;10.70;6.55;;;;;;;13.33;58.25;102018.31;7388278;19;20026;-49
2023/05/14 01:52:20;;;;;;;9.20;6.50;;;;;;;13.32;58.08;102007.78;7394307;19;20019;-48
2023/05/14 01:54:47;;;;;;;8.77;6.10;;;;;;;13.52;58.05;102007.31;7397033;19;20011;-47
2023/05/14 01:57:14;;;;;;;11.18;6.50;;;;;;;13.57;57.46;102015.00;7396796;19;20014;-48
2023/05/14 01:59:41;;;;;;;11.65;6.30;;;;;;;13.23;58.66;102011.88;7396250;19;20015;-48
2023/05/14 02:02:08;;;;;;;11.30;6.60;;;;;;;13.37;58.96;102008.31;7394242;19;20036;-48
2023/05/14 02:04:35;;;;;;;9.10;5.93;;;;;;;13.56;58.31;102000.84;7396270;19;20018;-51
2023/05/14 02:07:02;;;;;;;11.18;6.40;;;;;;;13.33;58.73;102001.50;7396686;19;20097;-52
2023/05/14 02:09:29;;;;;;;12.43;6.50;;;;;;;13.07;58.67;102000.50;7394870;19;20023;-53
2023/05/14 02:11:56;;;;;;;8.77;6.63;;;;;;;12.96;59.88;101993.19;7394322;19;20462;-48
2023/05/14 02:14:23;;;;;;;12.32;6.32;;;;;;;13.32;59.10;102002.47;7395959;19;20021;-50
2023/05/14 02:16:50;;;;;;;10.30;5.85;;;;;;;13.51;58.28;101986.16;7395773;19;20014;-48
2023/05/14 02:19:17;;;;;;;10.07;6.45;;;;;;;13.21;58.97;101989.81;7395613;19;20018;-51
2023/05/14 02:21:44;;;;;;;10.00;5.82;;;;;;;12.83;60.21;101993.13;7394318;19;20056;-52
2023/05/14 02:24:11;;;;;;;8.43;6.07;;;;;;;12.87;60.38;101981.34;7396695;19;20018;-52
2023/05/14 02:26:38;;;;;;;11.32;6.18;;;;;;;12.86;59.70;101982.31;7395505;19;20015;-49
2023/05/14 02:29:05;;;;;;;9.75;6.20;;;;;;;12.84;60.37;101973.56;7394829;19;20018;-49
2023/05/14 02:31:33;;;;;;;9.30;6.22;;;;;;;12.76;60.35;101978.50;7393184;19;20426;-49
2023/05/14 02:34:00;;;;;;;10.68;6.00;;;;;;;13.10;59.60;101976.38;7396383;19;20018;-49
2023/05/14 02:36:27;;;;;;;8.35;6.10;;;;;;;13.33;58.46;101961.59;7395746;19;20043;-50
2023/05/14 02:38:56;;;;;;;10.52;6.00;;;;;;;13.37;58.64;101965.75;7395107;19;20022;-52
2023/05/14 02:41:23;;;;;;;10.60;6.88;;;;;;;13.27;58.64;101968.16;7394649;19;20023;-52
2023/05/14 02:43:51;;;;;;;11.73;6.40;;;;;;;13.27;59.16;101965.50;7395213;19;20018;-50
2023/05/14 02:46:18;;;;;;;12.02;6.75;;;;;;;13.38;58.79;101960.31;7395479;19;20495;-52
2023/05/14 02:48:45;;;;;;;11.70;6.97;;;;;;;13.44;58.92;101960.88;7394645;19;20507;-53
2023/05/14 02:51:12;;;;;;;9.48;6.20;;;;;;;13.46;58.50;101967.78;7394694;19;20421;-54
2023/05/14 02:53:39;;;;;;;9.07;7.05;;;;;;;13.52;58.43;101974.53;7395692;19;20018;-53
2023/05/14 02:56:07;;;;;;;13.15;7.15;;;;;;;13.49;58.26;101970.25;7393500;19;20022;-52
2023/05/14 02:58:34;;;;;;;12.50;6.75;;;;;;;13.37;58.52;101968.41;7394379;19;20029;-51
2023/05/14 03:01:01;;;;;;;13.40;8.02;;;;;;;12.85;59.99;101971.75;7394475;19;20019;-54
2023/05/14 03:03:29;;;;;;;13.05;7.65;;;;;;;12.96;60.37;101973.72;7395006;19;20033;-49
2023/05/14 03:05:57;;;;;;;10.48;7.15;;;;;;;13.02;59.92;101966.22;7395182;19;20025;-52
2023/05/14 03:08:24;;;;;;;12.70;6.93;;;;;;;13.03;60.08;101970.56;7394235;19;20031;-52
2023/05/14 03:10:51;;;;;;;12.23;7.50;;;;;;;12.69;60.96;101959.44;7391304;19;20026;-51
2023/05/14 03:13:19;;;;;;;11.15;7.70;;;;;;;12.77;60.63;101956.28;7390946;19;20563;-52
2023/05/14 03:15:46;;;;;;;12.23;7.80;;;;;;;12.76;60.87;101961.72;7393985;19;20039;-52
2023/05/14 03:18:13;;;;;;;13.23;7.60;;;;;;;12.82;60.44;101959.53;7394246;19;20022;-48
2023/05/14 03:20:41;;;;;;;9.93;7.55;;;;;;;12.81;60.79;101960.47;7393182;19;20015;-50
2023/05/14 03:23:08;;;;;;;12.02;8.25;;;;;;;12.32;61.95;101963.53;7394159;19;20033;-49
2023/05/14 03:25:35;;;;;;;13.15;7.65;;;;;;;12.31;62.50;101969.81;7394225;19;20019;-52
2023/05/14 03:28:02;;;;;;;10.27;7.68;;;;;;;12.55;61.91;101970.06;7394040;19;20092;-52
2023/05/14 03:30:29;;;;;;;12.63;8.50;;;;;;;12.54;61.75;101978.16;7390992;19;20035;-50
2023/05/14 03:32:57;;;;;;;12.48;8.07;;;;;;;12.48;62.54;101973.22;7393675;19;20031;-50
2023/05/14 03:35:24;;;;;;;13.27;9.10;;;;;;;12.63;61.63;101974.91;7393029;19;20115;-50
2023/05/14 03:37:51;;;;;;;13.15;8.75;;;;;;;12.40;62.51;101979.88;7393968;19;20074;-48
2023/05/14 03:40:21;;;;;;;12.27;8.13;;;;;;;12.66;62.01;101980.03;7391959;19;20023;-48
2023/05/14 03:42:49;;;;;;;11.05;7.68;;;;;;;12.85;61.80;101977.06;7393197;19;20510;-54
2023/05/14 03:45:16;;;;;;;11.90;7.70;;;;;;;12.68;62.01;101979.00;7392051;19;20494;-52
2023/05/14 03:47:43;;;;;;;11.52;7.75;;;;;;;12.78;61.52;101984.59;7392740;19;20109;-53
2023/05/14 03:50:10;;;;;;;12.73;7.80;;;;;;;12.85;61.35;101975.25;7392926;19;20018;-50
2023/05/14 03:52:37;;;;;;;12.82;8.82;;;;;;;12.65;62.09;101978.34;7394159;19;20019;-50
2023/05/14 03:55:05;;;;;;;11.30;8.10;;;;;;;12.76;61.79;101970.53;7392505;19;20036;-48
2023/05/14 03:57:32;;;;;;;12.65;7.88;;;;;;;12.92;61.15;101973.91;7393115;19;20090;-50
2023/05/14 03:59:59;;;;;;;10.88;7.82;;;;;;;12.54;62.56;101975.50;7392148;19;20018;-50
2023/05/14 04:02:26;;;;;;;12.75;7.90;;;;;;;12.36;63.85;101975.69;7390348;19;20023;-52
2023/05/14 04:04:53;;;;;;;10.07;7.65;;;;;;;12.32;64.12;101976.81;7393059;19;20043;-52
2023/05/14 04:07:21;;;;;;;11.02;7.75;;;;;;;12.74;62.79;101979.56;7391886;19;20070;-52
2023/05/14 04:09:48;;;;;;;13.23;7.70;;;;;;;12.96;61.74;101974.59;7391815;19;20030;-52
2023/05/14 04:12:15;;;;;;;10.85;8.00;;;;;;;12.97;61.37;101964.78;7389304;19;20025;-50
2023/05/14 04:14:42;;;;;;;12.88;8.15;;;;;;;12.79;62.71;101970.34;7390995;19;20094;-50
2023/05/14 04:17:09;;;;;;;10.25;7.60;;;;;;;13.05;62.17;101974.00;7392325;19;20014;-50
2023/05/14 04:19:36;;;;;;;12.40;8.02;;;;;;;13.17;62.04;101975.03;7391949;19;20097;-49
2023/05/14 04:22:03;;;;;;;13.60;8.32;;;;;;;13.24;61.59;101972.81;7390942;19;20043;-49
2023/05/14 04:24:30;;;;;;;11.13;7.80;;;;;;;13.29;61.54;101968.91;7392209;19;20014;-48
2023/05/14 04:26:57;;;;;;;10.90;7.82;;;;;;;13.39;61.49;101963.84;7391824;19;20085;-50
2023/05/14 04:29:24;;;;;;;11.52;7.78;;;;;;;13.44;61.05;101966.22;7391908;19;20044;-54
2023/05/14 04:31:52;;;;;;;10.95;8.00;;;;;;;13.16;62.26;101973.28;7389656;19;20055;-50
2023/05/14 04:34:19;;;;;;;9.80;6.82;;;;;;;13.33;61.84;101964.25;7392614;19;20022;-52
2023/05/14 04:36:46;;;;;;;11.80;7.55;;;;;;;13.44;61.54;101977.72;7392329;19;20007;-48
2023/05/14 04:39:13;;;;;;;11.82;7.78;;;;;;;13.56;61.34;101976.88;7390891;19;20025;-50
2023/05/14 04:41:41;;;;;;;11.65;7.72;;;;;;;13.67;60.92;101986.81;7390744;19;20022;-49
2023/05/14 04:44:08;;;;;;;10.75;7.30;;;;;;;13.75;60.55;101986.31;7391719;19;20070;-50
2023/05/14 04:46:35;;;;;;;9.95;7.03;;;;;;;13.76;60.59;101986.19;7391563;19;20028;-52
2023/05/14 04:49:03;;;;;;;9.57;7.18;;;;;;;13.84;60.38;101991.00;7390666;19;20018;-50
2023/05/14 04:51:30;;;;;;;10.43;7.03;;;;;;;13.91;60.04;101994.97;7390330;19;20022;-49
2023/05/14 04:53:57;;;;;;;10.23;7.00;;;;;;;13.96;59.64;101994.63;7389877;19;20098;-51
2023/05/14 04:56:24;;;;;;;10.32;6.78;;;;;;;14.02;59.39;101994.22;7391038;19;20018;-49
2023/05/14 04:58:51;;;;;;;10.70;6.80;;;;;;;14.05;59.14;101986.88;7390231;19;20515;-49
2023/05/14 05:01:18;;;;;;;10.25;7.32;;;;;;;14.08;58.83;101994.66;7390131;19;20014;-49
2023/05/14 05:03:45;;;;;;;9.55;6.75;;;;;;;14.12;58.96;101995.31;7391688;19;20387;-49
2023/05/14 05:06:12;;;;;;;11.40;7.20;;;;;;;14.14;59.13;101994.22;7390751;19;20078;-48
2023/05/14 05:08:40;;;;;;;9.30;6.57;;;;;;;14.19;59.37;101990.41;7390446;19;20016;-50
2023/05/14 05:11:07;;;;;;;11.15;6.82;;;;;;;14.30;59.12;101996.69;7389743;19;20034;-49
2023/05/14 05:13:34;;;;;;;8.88;6.45;;;;;;;14.38;58.90;101991.69;7390921;19;20022;-51
2023/05/14 05:16:01;;;;;;;12.35;6.88;;;;;;;14.54;58.71;101990.66;7390425;19;20010;-48
2023/05/14 05:18:28;;;;;;;9.02;6.53;;;;;;;14.68;58.61;101993.16;7390069;19;20015;-50
2023/05/14 05:20:55;;;;;;;8.52;5.97;;;;;;;14.82;58.45;101986.88;7388251;19;20022;-49
2023/05/14 05:23:23;;;;;;;10.40;5.95;;;;;;;14.84;58.23;101984.91;7391160;19;20026;-51
2023/05/14 05:25:50;;;;;;;10.80;6.38;;;;;;;14.87;58.40;101990.03;7388130;19;20015;-52
2023/05/14 05:28:17;;;;;;;9.60;6.35;;;;;;;14.77;59.14;101989.03;7390380;19;20018;-49
2023/05/14 05:30:44;;;;;;;9.10;6.15;;;;;;;14.85;59.14;101984.84;7387962;19;20023;-52
2023/05/14 05:33:11;;;;;;;10.18;5.88;;;;;;;14.83;59.79;101992.06;7388499;19;20025;-52
2023/05/14 05:35:38;;;;;;;9.02;6.25;;;;;;;14.86;60.55;101985.69;7390012;19;20039;-52
2023/05/14 05:38:06;;;;;;;10.70;5.75;;;;;;;15.13;59.58;101981.97;7388441;19;20082;-52
2023/05/14 05:40:33;;;;;;;7.32;5.30;;;;;;;15.24;58.93;101985.56;7387343;19;20028;-51
2023/05/14 05:43:00;;;;;;;7.43;5.32;;;;;;;15.31;58.59;101980.63;7384779;19;20035;-53
2023/05/14 05:45:27;;;;;;;8.13;5.35;;;;;;;15.41;58.70;101986.13;7388520;19;20022;-52
2023/05/14 05:47:54;;;;;;;9.13;5.40;;;;;;;15.48;58.71;101976.69;7386061;19;20022;-52
2023/05/14 05:50:21;;;;;;;8.63;5.53;;;;;;;15.54;58.37;101981.56;7385267;19;20015;-52
2023/05/14 05:52:48;;;;;;;8.75;5.35;;;;;;;15.61;58.56;101982.81;7389663;19;20019;-53
2023/05/14 05:55:15;;;;;;;7.88;5.45;;;;;;;15.63;59.13;101980.88;7389162;19;20019;-52
2023/05/14 05:57:42;;;;;;;8.52;5.68;;;;;;;15.68;58.79;101984.09;7388501;19;20047;-51
2023/05/14 06:00:13;;;;;;;10.05;5.05;;;;;;;15.72;58.70;101980.22;7388593;19;20018;-52
2023/05/14 06:02:40;;;;;;;8.07;5.05;;;;;;;15.77;58.50;101982.53;7389003;19;20022;-53
2023/05/14 06:05:08;;;;;;;7.78;4.68;;;;;;;15.78;58.54;101987.75;7389122;19;20018;-51
2023/05/14 06:07:35;;;;;;;8.02;5.10;;;;;;;15.82;59.00;101978.53;7389793;19;20096;-53
2023/05/14 06:10:03;;;;;;;8.27;5.00;;;;;;;15.87;59.40;101983.53;7388177;19;20019;-52
2023/05/14 06:12:30;;;;;;;8.32;4.60;;;;;;;15.94;59.10;101983.91;7386626;19;20018;-51
2023/05/14 06:14:57;;;;;;;8.13;5.00;;;;;;;16.03;58.86;101984.06;7381415;19;20043;-52
2023/05/14 06:17:24;;;;;;;6.90;4.22;;;;;;;16.08;58.62;101981.03;7391433;19;20022;-51
2023/05/14 06:19:52;;;;;;;6.88;4.60;;;;;;;16.08;58.59;101989.06;7388886;19;20478;-50
2023/05/14 06:22:19;;;;;;;7.97;4.65;;;;;;;16.11;58.31;101994.16;7384967;19;20043;-51
2023/05/14 06:24:47;;;;;;;8.43;4.55;;;;;;;16.14;59.05;102001.06;7387686;19;20039;-52
2023/05/14 06:27:14;;;;;;;7.35;4.40;;;;;;;16.23;59.00;101993.22;7387499;19;20024;-52
2023/05/14 06:29:41;;;;;;;6.22;4.47;;;;;;;16.28;59.36;101990.16;7388084;19;20037;-52
2023/05/14 06:32:09;;;;;;;8.30;5.10;;;;;;;16.33;59.57;101993.31;7386693;19;20077;-49
2023/05/14 06:34:36;;;;;;;7.38;4.80;;;;;;;16.38;59.43;101993.00;7387981;19;20018;-51
2023/05/14 06:37:03;;;;;;;7.15;4.70;;;;;;;16.38;59.96;101993.00;7391497;19;20536;-49
2023/05/14 06:39:30;;;;;;;9.02;5.22;;;;;;;16.41;60.15;101998.94;7395236;19;20019;-50
2023/05/14 06:41:57;;;;;;;6.45;4.60;;;;;;;16.46;60.24;101996.75;7393247;19;20508;-49
2023/05/14 06:44:24;;;;;;;7.78;4.38;;;;;;;16.56;59.72;101996.91;7395199;19;20370;-47
2023/05/14 06:46:51;;;;;;;10.30;7.40;;;;;;;16.58;59.21;101998.47;7395350;19;20022;-49
2023/05/14 06:49:18;;;;;;;11.35;8.63;;;;;;;16.65;59.27;102009.53;7394800;19;20019;-49
2023/05/14 06:51:45;;;;;;;17.92;15.30;;;;;;;16.71;59.80;101994.81;7393436;19;20032;-48
2023/05/14 06:54:13;;;;;;;15.57;13.98;;;;;;;16.76;59.63;101998.00;7394190;19;20014;-50
2023/05/14 06:56:40;;;;;;;12.25;10.02;;;;;;;16.86;59.09;101998.09;7394774;19;20032;-51
2023/05/14 06:59:07;;;;;;;9.65;5.18;;;;;;;16.93;58.71;101999.31;7389940;19;20491;-51
2023/05/14 07:01:34;;;;;;;6.47;3.78;;;;;;;16.99;57.90;101994.34;7397279;19;20040;-52
2023/05/14 07:04:01;;;;;;;6.28;3.83;;;;;;;17.08;57.04;101995.41;7386870;19;20014;-52
2023/05/14 07:06:28;;;;;;;5.80;3.92;;;;;;;17.16;56.51;101995.63;7398488;19;20010;-49
2023/05/14 07:08:55;;;;;;;7.15;4.05;;;;;;;17.24;55.92;101992.31;7392417;19;20075;-51
2023/05/14 07:11:22;;;;;;;6.18;4.40;;;;;;;17.28;55.83;101989.28;7393212;19;20134;-53
2023/05/14 07:13:49;;;;;;;5.40;3.92;;;;;;;17.35;55.14;101983.41;7392629;19;20086;-51
2023/05/14 07:16:16;;;;;;;6.63;3.38;;;;;;;17.42;54.42;101984.59;7394287;19;20082;-52
2023/05/14 07:18:44;;;;;;;6.20;3.90;;;;;;;17.44;54.18;101986.19;7392283;19;20022;-50
2023/05/14 07:21:11;;;;;;;8.07;4.05;;;;;;;17.49;54.40;101992.00;7393225;19;20026;-51
2023/05/14 07:23:38;;;;;;;6.10;4.00;;;;;;;17.51;54.80;101990.06;7394661;19;20022;-51
2023/05/14 07:26:06;;;;;;;5.47;3.33;;;;;;;17.50;54.14;101985.66;7392720;19;20039;-51
2023/05/14 07:28:33;;;;;;;5.47;3.70;;;;;;;17.52;53.49;101973.00;7391232;19;20090;-52
2023/05/14 07:31:07;;;;;;;7.97;3.78;;;;;;;17.60;53.32;101976.88;7391645;19;20024;-52
2023/05/14 07:33:35;;;;;;;6.13;3.90;;;;;;;17.62;53.37;101972.22;7392173;19;20022;-48
2023/05/14 07:36:02;;;;;;;7.55;3.20;;;;;;;17.66;53.76;101979.00;7393671;19;20014;-47
2023/05/14 07:38:30;;;;;;;4.93;3.50;;;;;;;17.68;53.03;101975.22;7390723;19;20015;-49
2023/05/14 07:40:57;;;;;;;5.35;3.22;;;;;;;17.73;52.52;101969.47;7391090;19;20033;-52
2023/05/14 07:43:24;;;;;;;5.63;3.33;;;;;;;17.80;52.42;101962.66;7393611;19;20023;-52
2023/05/14 07:45:52;;;;;;;6.70;3.58;;;;;;;17.84;51.96;101966.78;7391434;19;20024;-51
2023/05/14 07:48:19;;;;;;;5.80;3.00;;;;;;;17.90;52.09;101968.94;7389253;19;20043;-48
2023/05/14 07:50:47;;;;;;;6.53;3.22;;;;;;;17.99;51.71;101975.34;7392757;19;20015;-52
2023/05/14 07:53:14;;;;;;;6.38;3.05;;;;;;;18.05;51.88;101977.50;7391822;19;20348;-50
2023/05/14 07:55:43;;;;;;;13.43;3.50;;;;;;;18.16;51.91;101976.56;7392866;19;20031;-50
2023/05/14 07:58:10;;;;;;;7.85;3.05;;;;;;;18.24;51.41;101974.09;7392945;19;20017;-49
2023/05/14 08:00:38;;;;;;;7.70;3.08;;;;;;;18.30;50.68;101970.84;7390355;19;20027;-51
2023/05/14 08:03:05;;;;;;;6.63;3.58;;;;;;;18.40;50.36;101968.25;7393207;19;20024;-49
2023/05/14 08:05:32;;;;;;;6.45;3.33;;;;;;;18.50;49.65;101961.06;7391526;19;20015;-49
2023/05/14 08:07:59;;;;;;;5.55;3.20;;;;;;;18.54;48.92;101958.97;7393182;19;20395;-50
2023/05/14 08:10:26;;;;;;;6.07;2.92;;;;;;;18.57;48.80;101959.53;7390671;19;20033;-51
2023/05/14 08:12:54;;;;;;;5.35;2.90;;;;;;;18.59;49.18;101960.25;7390887;19;20039;-52
2023/05/14 08:15:22;;;;;;;4.40;2.78;;;;;;;18.69;49.41;101958.44;7390301;19;20110;-47
2023/05/14 08:17:52;;;;;;;8.23;2.90;;;;;;;18.72;48.92;101958.22;7392717;19;20483;-50
2023/05/14 08:20:19;;;;;;;6.85;3.10;;;;;;;18.72;49.57;101955.53;7389484;19;20043;-49
2023/05/14 08:22:47;;;;;;;4.70;2.95;;;;;;;18.79;50.21;101955.84;7392774;19;20011;-51
2023/05/14 08:25:14;;;;;;;4.90;3.00;;;;;;;18.85;50.06;101952.59;7389418;19;20018;-51
2023/05/14 08:27:41;;;;;;;6.40;3.05;;;;;;;18.91;49.85;101951.19;7391956;19;20011;-52
2023/05/14 08:30:08;;;;;;;5.15;3.00;;;;;;;18.98;48.93;101955.03;7391163;19;20029;-51
2023/05/14 08:32:37;;;;;;;5.78;3.10;;;;;;;19.07;49.77;101951.50;7390316;19;20029;-49
2023/05/14 08:35:05;;;;;;;5.68;3.40;;;;;;;19.14;49.27;101949.97;7391059;19;20018;-50
2023/05/14 08:37:32;;;;;;;6.10;3.20;;;;;;;19.17;49.15;101948.84;7391639;19;20019;-52
2023/05/14 08:39:59;;;;;;;5.97;3.10;;;;;;;19.15;48.99;101942.75;7391274;19;20014;-52
2023/05/14 08:42:27;;;;;;;5.95;2.58;;;;;;;19.19;49.05;101939.66;7389166;19;20026;-47
2023/05/14 08:45:02;;;;;;;4.45;2.88;;;;;;;19.19;48.68;101934.28;7391289;19;20601;-49
2023/05/14 08:47:30;;;;;;;4.68;2.85;;;;;;;19.20;48.32;101940.50;7391178;19;20094;-48
2023/05/14 08:50:05;;;;;;;6.20;3.30;;;;;;;19.26;47.97;101933.72;7389467;19;20085;-53
2023/05/14 08:52:33;;;;;;;5.07;2.75;;;;;;;19.22;47.88;101930.47;7390503;19;20015;-51
2023/05/14 08:55:04;;;;;;;5.28;3.00;;;;;;;19.26;48.02;101934.56;7391261;19;20011;-51
2023/05/14 08:57:33;;;;;;;4.82;2.80;;;;;;;19.32;47.75;101923.25;7390923;19;20512;-50
2023/05/14 09:00:06;;;;;;;7.10;3.30;;;;;;;19.47;47.11;101921.00;7390027;19;20029;-49
2023/05/14 09:02:34;;;;;;;4.85;3.00;;;;;;;19.58;46.66;101917.31;7391109;19;20074;-51
2023/05/14 09:05:02;;;;;;;7.35;3.35;;;;;;;19.74;46.66;101922.13;7390927;19;20018;-51
2023/05/14 09:07:30;;;;;;;5.05;3.05;;;;;;;19.83;46.19;101926.63;7390773;19;20014;-50
2023/05/14 09:09:58;;;;;;;7.70;3.70;;;;;;;19.85;46.48;101917.44;7389936;19;20015;-50
2023/05/14 09:12:25;;;;;;;4.35;2.80;;;;;;;19.76;46.32;101912.91;7388053;19;20026;-51
2023/05/14 09:14:55;;;;;;;6.85;3.60;;;;;;;19.76;45.42;101912.06;7390515;19;20047;-47
2023/05/14 09:17:24;;;;;;;5.85;2.97;;;;;;;19.82;46.31;101917.72;7391046;19;20208;-51
2023/05/14 09:19:52;;;;;;;3.78;2.83;;;;;;;19.81;45.86;101917.88;7388056;19;20123;-50
2023/05/14 09:22:19;;;;;;;5.28;3.10;;;;;;;19.82;45.39;101911.50;7389545;19;20078;-51
2023/05/14 09:25:04;;;;;;;8.70;3.67;;;;;;;19.91;44.99;101916.84;7389076;19;20501;-51
2023/05/14 09:27:32;;;;;;;6.05;3.15;;;;;;;19.91;44.46;101910.63;7391258;19;20460;-50
2023/05/14 09:30:12;;;;;;;9.07;3.70;;;;;;;19.88;43.38;101913.59;7389317;19;20078;-51
2023/05/14 09:32:42;;;;;;;5.95;3.58;;;;;;;19.95;43.38;101909.31;7389282;19;20018;-52
2023/05/14 09:35:15;;;;;;;5.13;3.10;;;;;;;20.03;42.87;101898.69;7387714;19;20011;-51
2023/05/14 09:37:48;;;;;;;5.85;3.45;;;;;;;20.03;42.71;101896.00;7390274;19;20042;-51
2023/05/14 09:40:17;;;;;;;6.00;3.15;;;;;;;19.98;43.14;101898.28;7388459;19;20048;-51
2023/05/14 09:42:44;;;;;;;5.57;3.13;;;;;;;19.98;43.88;101895.59;7389186;19;20014;-52
2023/05/14 09:45:11;;;;;;;5.45;3.05;;;;;;;20.04;43.32;101895.03;7389365;19;20022;-48
2023/05/14 09:47:39;;;;;;;7.53;3.10;;;;;;;20.02;43.11;101893.47;7390199;19;20014;-53
2023/05/14 09:50:07;;;;;;;6.47;3.58;;;;;;;19.94;43.11;101888.81;7389200;19;20018;-51
2023/05/14 09:52:34;;;;;;;7.38;3.20;;;;;;;19.90;43.62;101887.41;7387523;19;20126;-52
2023/05/14 09:55:02;;;;;;;6.80;3.13;;;;;;;19.85;43.80;101892.41;7388740;19;20019;-48
2023/05/14 09:57:29;;;;;;;7.40;3.10;;;;;;;19.75;44.23;101887.03;7388097;19;20015;-48
2023/05/14 09:59:56;;;;;;;4.90;3.08;;;;;;;19.70;43.42;101889.31;7389012;19;20538;-48
2023/05/14 10:02:25;;;;;;;5.18;2.95;;;;;;;19.67;42.21;101887.75;7387033;19;20025;-48
2023/05/14 10:04:53;;;;;;;9.00;2.97;;;;;;;19.71;42.56;101883.78;7389092;19;20093;-48
2023/05/14 10:07:32;;;;;;;5.15;3.20;;;;;;;19.83;42.34;101878.25;7387777;19;20031;-54
2023/05/14 10:10:02;;;;;;;4.35;3.17;;;;;;;19.86;43.14;101880.63;7388124;19;20011;-49
2023/05/14 10:12:33;;;;;;;5.78;2.95;;;;;;;19.83;43.31;101881.78;7390427;19;20021;-47
2023/05/14 10:15:05;;;;;;;5.93;3.30;;;;;;;19.82;43.26;101879.25;7395718;19;20095;-51
2023/05/14 10:17:35;;;;;;;6.32;2.90;;;;;;;19.84;43.83;101870.03;7392072;19;20019;-47
2023/05/14 10:20:04;;;;;;;4.43;3.05;;;;;;;19.91;42.80;101873.81;7395896;19;20039;-49
2023/05/14 10:22:33;;;;;;;5.85;2.70;;;;;;;19.98;42.38;101871.41;7396191;19;20135;-52
2023/05/14 10:25:02;;;;;;;5.10;2.88;;;;;;;20.00;41.81;101869.41;7395250;19;20018;-50
2023/05/14 10:27:30;;;;;;;4.60;2.67;;;;;;;20.06;41.67;101866.13;7395867;19;20014;-51
2023/05/14 10:29:57;;;;;;;5.25;3.10;;;;;;;20.18;41.63;101864.97;7395742;19;20019;-50
2023/05/14 10:32:25;;;;;;;5.00;2.60;;;;;;;20.34;41.13;101863.47;7393376;19;20019;-52
2023/05/14 10:34:52;;;;;;;5.80;3.03;;;;;;;20.42;41.25;101859.03;7395454;19;20023;-48
2023/05/14 10:37:26;;;;;;;4.25;2.80;;;;;;;20.51;42.09;101857.28;7395757;19;20026;-51
2023/05/14 10:39:57;;;;;;;4.75;3.20;;;;;;;20.60;41.33;101853.69;7393466;19;20014;-50
2023/05/14 10:42:27;;;;;;;4.35;3.00;;;;;;;20.65;41.23;101843.31;7391931;19;20018;-51
2023/05/14 10:45:00;;;;;;;5.15;3.05;;;;;;;20.66;40.89;101854.94;7395245;19;20492;-50
2023/05/14 10:47:28;;;;;;;;;;;;;;;20.48;40.03;101849.50;7396687;19;20516;-51
2023/05/14 10:49:57;;;;;;;5.80;2.90;;;;;;;20.56;41.64;101849.59;7394555;19;19974;-48
2023/05/14 10:52:25;;;;;;;5.20;2.55;;;;;;;20.72;41.25;101842.69;7388591;19;20018;-50
2023/05/14 10:54:57;;;;;;;4.22;2.72;;;;;;;20.66;40.38;101841.47;7394110;19;20085;-48
2023/05/14 10:57:30;;;;;;;3.55;2.58;;;;;;;20.60;40.46;101840.22;7392914;19;20548;-50
2023/05/14 10:59:59;;;;;;;4.07;2.72;;;;;;;20.65;40.39;101829.03;7384757;19;20026;-51
2023/05/14 11:02:36;;;;;;;4.63;2.80;;;;;;;20.68;40.23;101834.97;7392859;19;20023;-52
2023/05/14 11:05:07;;;;;;;5.38;2.65;;;;;;;20.68;40.86;101821.50;7394175;19;20430;-50
2023/05/14 11:07:39;;;;;;;5.50;2.80;;;;;;;20.76;40.76;101830.63;7395510;19;20078;-47
2023/05/14 11:10:08;;;;;;;3.72;2.70;;;;;;;20.69;40.78;101828.56;7393452;19;20015;-50
2023/05/14 11:12:37;;;;;;;6.28;3.13;;;;;;;20.65;40.62;101819.09;7393893;19;20011;-51
2023/05/14 11:15:08;;;;;;;6.75;3.42;;;;;;;20.60;41.28;101825.94;7393311;19;20018;-50
2023/05/14 11:17:36;;;;;;;5.10;2.90;;;;;;;20.52;41.19;101821.31;7392572;19;20023;-50
2023/05/14 11:20:05;;;;;;;4.63;2.95;;;;;;;20.48;42.09;101825.28;7393731;19;20483;-49
2023/05/14 11:22:36;;;;;;;6.57;3.13;;;;;;;20.50;42.01;101815.25;7392929;19;20018;-49
2023/05/14 11:25:05;;;;;;;3.83;2.80;;;;;;;20.52;41.84;101815.09;7393283;19;20529;-50
2023/05/14 11:27:38;;;;;;;3.97;2.47;;;;;;;20.53;41.82;101806.00;7393632;19;20022;-48